Time;durP1;ratioP1;P1;durP2;ratioP2;P2;SDS_P1;SDS_P2;PMS_P1;PMS_P2;Temp;Humidity;BMP_temperature;BMP_pressure;BME280_temperature;BME280_humidity;BME280_pressure;Samples;Min_cycle;Max_cycle;Signal;HPM_P1;HPM_P2
2021/01/27 00:00:15;;;;;;;16.90;9.70;;;;;;;-0.15;100.00;99714.47;2577742;55;20113;-66
2021/01/27 00:02:45;;;;;;;14.00;8.55;;;;;;;-0.18;100.00;99714.62;2577677;55;20139;-67
2021/01/27 00:05:17;;;;;;;18.10;9.57;;;;;;;-0.17;100.00;99707.59;2575126;55;20135;-68
2021/01/27 00:07:44;;;;;;;20.33;10.55;;;;;;;-0.16;100.00;99704.91;2572337;55;20137;-66
2021/01/27 00:10:14;;;;;;;16.40;9.30;;;;;;;-0.20;100.00;99699.88;2572545;55;20125;-65
2021/01/27 00:12:41;;;;;;;18.67;10.05;;;;;;;-0.20;100.00;99694.63;2572195;55;20122;-67
2021/01/27 00:15:13;;;;;;;19.67;9.20;;;;;;;-0.20;100.00;99687.63;2572659;55;20479;-68
2021/01/27 00:17:41;;;;;;;14.48;8.20;;;;;;;-0.13;100.00;99692.56;2572632;55;20136;-67
2021/01/27 00:20:10;;;;;;;18.65;10.10;;;;;;;-0.15;100.00;99684.75;2572480;55;20113;-66
2021/01/27 00:22:38;;;;;;;21.10;9.68;;;;;;;-0.16;100.00;99686.56;2572294;55;20106;-68
2021/01/27 00:25:08;;;;;;;15.32;8.20;;;;;;;-0.15;100.00;99679.53;2572543;55;20126;-68
2021/01/27 00:27:36;;;;;;;19.05;9.68;;;;;;;-0.17;100.00;99678.75;2572115;55;20123;-67
2021/01/27 00:30:07;;;;;;;18.00;9.90;;;;;;;-0.20;100.00;99676.28;2572496;55;20130;-68
2021/01/27 00:32:35;;;;;;;17.40;9.15;;;;;;;-0.15;100.00;99667.28;2572067;55;20139;-67
2021/01/27 00:35:05;;;;;;;14.55;9.02;;;;;;;-0.16;100.00;99673.44;2572234;55;20125;-67
2021/01/27 00:37:32;;;;;;;19.25;9.70;;;;;;;-0.17;100.00;99669.12;2572336;55;20124;-68
2021/01/27 00:40:00;;;;;;;19.45;10.60;;;;;;;-0.19;100.00;99667.50;2572675;55;20121;-66
2021/01/27 00:42:28;;;;;;;16.65;9.25;;;;;;;-0.16;100.00;99670.81;2575778;55;20131;-66
2021/01/27 00:44:56;;;;;;;16.42;9.93;;;;;;;-0.20;100.00;99669.28;2577557;55;20609;-66
2021/01/27 00:47:23;;;;;;;15.15;8.98;;;;;;;-0.20;100.00;99657.94;2577337;55;20101;-67
2021/01/27 00:49:52;;;;;;;17.05;8.98;;;;;;;-0.22;100.00;99651.91;2577512;55;20125;-68
2021/01/27 00:52:20;;;;;;;18.48;9.60;;;;;;;-0.23;100.00;99648.44;2577456;55;20114;-67
2021/01/27 00:54:48;;;;;;;15.75;9.40;;;;;;;-0.24;100.00;99644.09;2577796;55;20133;-68
2021/01/27 00:57:15;;;;;;;18.52;9.43;;;;;;;-0.26;100.00;99643.34;2577197;55;20127;-66
2021/01/27 00:59:44;;;;;;;19.70;10.05;;;;;;;-0.25;100.00;99642.41;2577631;55;20127;-66
2021/01/27 01:02:12;;;;;;;18.37;10.00;;;;;;;-0.26;100.00;99637.22;2576614;55;20528;-67
2021/01/27 01:04:41;;;;;;;19.33;11.10;;;;;;;-0.27;100.00;99636.41;2577334;55;20174;-66
2021/01/27 01:07:10;;;;;;;18.00;10.25;;;;;;;-0.23;100.00;99637.09;2577385;55;20113;-67
2021/01/27 01:09:37;;;;;;;17.83;9.88;;;;;;;-0.28;100.00;99639.94;2577585;55;20120;-66
2021/01/27 01:12:06;;;;;;;18.73;11.32;;;;;;;-0.27;100.00;99631.16;2577121;55;20797;-67
2021/01/27 01:14:34;;;;;;;21.83;10.02;;;;;;;-0.28;100.00;99634.69;2577623;55;20124;-66
2021/01/27 01:17:01;;;;;;;20.73;10.27;;;;;;;-0.33;100.00;99636.69;2577269;55;20121;-66
2021/01/27 01:19:29;;;;;;;16.52;9.95;;;;;;;-0.30;100.00;99626.03;2577416;55;20125;-66
2021/01/27 01:21:56;;;;;;;16.27;9.60;;;;;;;-0.36;100.00;99623.72;2577326;55;20121;-68
2021/01/27 01:24:25;;;;;;;19.33;9.90;;;;;;;-0.33;100.00;99624.44;2577513;55;20110;-68
2021/01/27 01:26:52;;;;;;;20.73;10.93;;;;;;;-0.35;100.00;99622.81;2576643;55;20132;-68
2021/01/27 01:29:20;;;;;;;21.30;11.20;;;;;;;-0.36;100.00;99624.56;2577429;55;20109;-68
2021/01/27 01:31:48;;;;;;;18.10;10.77;;;;;;;-0.34;100.00;99614.00;2577419;55;20520;-66
2021/01/27 01:34:15;;;;;;;17.48;10.40;;;;;;;-0.32;100.00;99620.03;2577121;55;20105;-66
2021/01/27 01:36:43;;;;;;;20.33;10.45;;;;;;;-0.30;100.00;99620.78;2577371;55;20109;-66
2021/01/27 01:39:11;;;;;;;19.98;11.38;;;;;;;-0.35;100.00;99615.81;2577608;55;20121;-66
2021/01/27 01:41:39;;;;;;;19.60;10.02;;;;;;;-0.36;100.00;99613.25;2577058;55;20128;-66
2021/01/27 01:44:07;;;;;;;23.35;10.70;;;;;;;-0.35;100.00;99620.19;2577538;55;20620;-68
2021/01/27 01:46:37;;;;;;;20.48;10.52;;;;;;;-0.36;100.00;99605.37;2577157;55;20647;-68
2021/01/27 01:49:09;;;;;;;22.70;11.90;;;;;;;-0.36;100.00;99610.63;2577170;55;20157;-68
2021/01/27 01:51:41;;;;;;;22.50;11.15;;;;;;;-0.35;100.00;99607.94;2577597;55;20105;-66
2021/01/27 01:54:14;;;;;;;23.48;11.32;;;;;;;-0.36;100.00;99611.44;2577302;55;20136;-68
2021/01/27 01:56:48;;;;;;;19.58;10.60;;;;;;;-0.33;100.00;99607.84;2577275;55;20135;-65
2021/01/27 01:59:16;;;;;;;27.85;11.63;;;;;;;-0.37;100.00;99601.06;2577529;55;20121;-68
2021/01/27 02:01:46;;;;;;;23.48;11.27;;;;;;;-0.36;100.00;99602.75;2577091;55;20113;-66
2021/01/27 02:04:14;;;;;;;17.65;10.55;;;;;;;-0.39;100.00;99598.50;2577285;55;20132;-66
2021/01/27 02:06:42;;;;;;;22.75;11.07;;;;;;;-0.35;100.00;99596.59;2577146;55;20124;-67
2021/01/27 02:09:10;;;;;;;20.85;11.12;;;;;;;-0.38;100.00;99594.97;2576874;55;20143;-66
2021/01/27 02:12:15;;;;;;;19.10;11.77;;;;;;;-0.28;100.00;99592.75;2577270;55;20157;-68
2021/01/27 02:15:03;;;;;;;22.70;10.52;;;;;;;-0.29;100.00;99585.81;2576862;55;20124;-66
2021/01/27 02:17:38;;;;;;;19.33;11.07;;;;;;;-0.31;100.00;99591.13;2576873;55;20507;-66
2021/01/27 02:20:45;;;;;;;23.90;12.02;;;;;;;-0.24;100.00;99588.22;2577570;55;20119;-68
2021/01/27 02:23:46;;;;;;;22.65;10.90;;;;;;;-0.26;100.00;99592.66;2577199;55;20505;-66
2021/01/27 02:26:33;;;;;;;21.75;11.70;;;;;;;-0.29;100.00;99586.66;2577008;55;20129;-67
2021/01/27 02:29:19;;;;;;;22.33;11.50;;;;;;;-0.30;100.00;99590.19;2577462;55;20640;-66
2021/01/27 02:31:57;;;;;;;18.87;10.93;;;;;;;-0.30;100.00;99589.34;2576729;55;20627;-66
2021/01/27 02:35:11;;;;;;;20.12;10.98;;;;;;;-0.25;100.00;99582.13;2577504;55;20128;-67
2021/01/27 02:37:45;;;;;;;20.65;10.70;;;;;;;-0.33;100.00;99573.75;2549803;56;20139;-67
2021/01/27 02:40:19;;;;;;;22.48;11.57;;;;;;;-0.30;100.00;99581.47;2549942;56;20127;-67
2021/01/27 02:42:58;;;;;;;21.75;10.60;;;;;;;-0.27;100.00;99583.97;2567168;55;20116;-68
2021/01/27 02:45:31;;;;;;;19.60;11.02;;;;;;;-0.29;100.00;99575.34;2577020;55;20124;-67
2021/01/27 02:48:02;;;;;;;22.52;11.10;;;;;;;-0.29;100.00;99577.97;2576963;55;20106;-67
2021/01/27 02:50:37;;;;;;;24.95;12.30;;;;;;;-0.28;100.00;99577.03;2577436;55;20124;-67
2021/01/27 02:53:12;;;;;;;19.25;10.45;;;;;;;-0.29;100.00;99580.59;2577150;55;20117;-67
2021/01/27 02:55:47;;;;;;;23.65;10.82;;;;;;;-0.26;100.00;99580.41;2577006;55;20158;-66
2021/01/27 02:58:21;;;;;;;20.70;10.90;;;;;;;-0.29;100.00;99580.59;2578081;55;20481;-66
2021/01/27 03:00:56;;;;;;;21.02;11.02;;;;;;;-0.30;100.00;99569.22;2577517;55;20480;-68
2021/01/27 03:03:30;;;;;;;21.27;11.05;;;;;;;-0.28;100.00;99570.00;2578052;55;20114;-67
2021/01/27 03:06:03;;;;;;;23.23;10.85;;;;;;;-0.26;100.00;99572.56;2577474;55;20125;-67
2021/01/27 03:08:37;;;;;;;20.88;10.43;;;;;;;-0.24;100.00;99568.09;2577973;55;20108;-65
2021/01/27 03:11:09;;;;;;;21.92;12.18;;;;;;;-0.28;100.00;99566.53;2578097;55;20126;-66
2021/01/27 03:13:39;;;;;;;21.52;12.07;;;;;;;-0.29;100.00;99564.84;2577960;55;20646;-67
2021/01/27 03:16:11;;;;;;;22.00;12.52;;;;;;;-0.38;100.00;99550.41;2577386;55;20113;-68
2021/01/27 03:18:43;;;;;;;19.12;11.38;;;;;;;-0.27;100.00;99568.25;2578307;55;20125;-68
2021/01/27 03:21:15;;;;;;;;;;;;;;;-0.15;100.00;99561.53;2578025;55;20135;-66
2021/01/27 03:23:49;;;;;;;22.60;11.38;;;;;;;-0.28;100.00;99556.06;2578083;55;19981;-68
2021/01/27 03:26:21;;;;;;;22.17;12.15;;;;;;;-0.29;100.00;99570.09;2577942;55;20126;-68
2021/01/27 03:28:57;;;;;;;23.62;11.65;;;;;;;-0.32;100.00;99560.59;2577599;55;20118;-66
2021/01/27 03:31:25;;;;;;;23.67;12.35;;;;;;;-0.38;100.00;99549.56;2577665;55;20146;-68
2021/01/27 03:33:58;;;;;;;19.73;10.95;;;;;;;-0.28;100.00;99569.16;2577914;55;20109;-66
2021/01/27 03:36:31;;;;;;;22.55;11.52;;;;;;;-0.31;100.00;99562.28;2577866;55;20132;-66
2021/01/27 03:39:01;;;;;;;24.27;13.25;;;;;;;-0.33;100.00;99564.16;2577806;55;20118;-66
2021/01/27 03:41:32;;;;;;;24.83;13.95;;;;;;;-0.34;100.00;99557.22;2577509;55;20474;-67
2021/01/27 03:44:05;;;;;;;24.67;14.15;;;;;;;-0.28;100.00;99554.28;2578025;55;20129;-65
2021/01/27 03:46:39;;;;;;;27.17;15.60;;;;;;;-0.30;100.00;99548.25;2577826;55;20117;-66
2021/01/27 03:49:13;;;;;;;23.15;12.23;;;;;;;-0.29;100.00;99549.13;2577523;55;20121;-66
2021/01/27 03:51:45;;;;;;;24.98;10.80;;;;;;;-0.28;100.00;99546.41;2577900;55;20110;-67
2021/01/27 03:54:20;;;;;;;17.50;10.63;;;;;;;-0.27;100.00;99552.50;2577796;55;20109;-66
2021/01/27 03:56:52;;;;;;;18.02;10.55;;;;;;;-0.29;100.00;99549.94;2577483;55;20114;-67
2021/01/27 03:59:20;;;;;;;19.62;9.60;;;;;;;-0.21;100.00;99546.13;2578098;55;20117;-66
2021/01/27 04:01:51;;;;;;;18.73;9.75;;;;;;;-0.25;100.00;99548.03;2577598;55;20145;-66
2021/01/27 04:04:20;;;;;;;22.02;12.32;;;;;;;-0.27;100.00;99539.41;2577757;55;20645;-66
2021/01/27 04:06:48;;;;;;;18.33;10.55;;;;;;;-0.33;100.00;99542.31;2577656;55;20142;-66
2021/01/27 04:09:16;;;;;;;18.75;11.52;;;;;;;-0.34;100.00;99548.47;2577241;55;20113;-66
2021/01/27 04:11:45;;;;;;;23.50;10.43;;;;;;;-0.38;100.00;99533.84;2577397;55;20512;-67
2021/01/27 04:14:13;;;;;;;19.30;10.77;;;;;;;-0.35;100.00;99538.91;2577977;55;20623;-66
2021/01/27 04:16:43;;;;;;;20.55;11.68;;;;;;;-0.35;100.00;99536.31;2577436;55;20117;-66
2021/01/27 04:19:11;;;;;;;19.95;10.70;;;;;;;-0.37;100.00;99543.41;2577889;55;20114;-66
2021/01/27 04:21:38;;;;;;;21.98;11.05;;;;;;;-0.38;100.00;99533.84;2572689;55;20117;-67
2021/01/27 04:24:07;;;;;;;18.80;11.63;;;;;;;-0.37;100.00;99535.53;2577576;55;20642;-66
2021/01/27 04:26:37;;;;;;;18.40;10.30;;;;;;;-0.40;100.00;99531.28;2577698;55;20116;-66
2021/01/27 04:29:05;;;;;;;19.40;11.43;;;;;;;-0.40;100.00;99533.03;2577822;55;20638;-65
2021/01/27 04:31:33;;;;;;;19.60;11.07;;;;;;;-0.42;100.00;99528.72;2576965;55;20118;-67
2021/01/27 04:34:01;;;;;;;21.67;11.38;;;;;;;-0.42;100.00;99536.59;2578034;55;20132;-66
2021/01/27 04:36:29;;;;;;;22.35;11.40;;;;;;;-0.42;100.00;99531.34;2577789;55;20131;-66
2021/01/27 04:38:57;;;;;;;22.77;12.65;;;;;;;-0.40;100.00;99527.78;2577368;55;20106;-67
2021/01/27 04:41:26;;;;;;;25.65;13.55;;;;;;;-0.39;100.00;99524.28;2577805;55;20125;-66
2021/01/27 04:43:54;;;;;;;25.42;14.25;;;;;;;-0.42;100.00;99528.72;2577598;55;20639;-66
2021/01/27 04:46:25;;;;;;;26.67;15.80;;;;;;;-0.39;100.00;99529.53;2577061;55;20602;-67
2021/01/27 04:49:01;;;;;;;23.98;14.82;;;;;;;-0.41;100.00;99526.97;2577888;55;20106;-66
2021/01/27 04:51:40;;;;;;;23.17;13.50;;;;;;;-0.35;100.00;99528.44;2577676;55;20534;-66
2021/01/27 04:54:28;;;;;;;25.55;13.80;;;;;;;-0.36;100.00;99522.34;2577360;55;20122;-68
2021/01/27 04:57:22;;;;;;;21.08;11.55;;;;;;;-0.28;100.00;99525.44;2577582;55;20128;-67
2021/01/27 05:00:05;;;;;;;19.62;10.20;;;;;;;-0.35;100.00;99520.56;2577199;55;20129;-65
2021/01/27 05:02:46;;;;;;;19.33;10.68;;;;;;;-0.34;100.00;99532.75;2577536;55;20547;-67
2021/01/27 05:05:18;;;;;;;19.52;9.88;;;;;;;-0.38;100.00;99520.72;2577723;55;20139;-66
2021/01/27 05:08:04;;;;;;;22.42;12.43;;;;;;;-0.35;100.00;99523.19;2577183;55;20102;-66
2021/01/27 05:10:39;;;;;;;19.98;11.45;;;;;;;-0.43;100.00;99521.78;2577878;55;20484;-66
2021/01/27 05:13:22;;;;;;;19.05;11.27;;;;;;;-0.37;100.00;99531.13;2577024;55;20641;-66
2021/01/27 05:15:50;;;;;;;18.42;10.35;;;;;;;-0.41;100.00;99529.59;2577180;55;20106;-66
2021/01/27 05:18:18;;;;;;;18.48;11.82;;;;;;;-0.42;100.00;99531.34;2577706;55;20524;-66
2021/01/27 05:20:48;;;;;;;22.45;11.25;;;;;;;-0.45;100.00;99526.25;2576904;55;20125;-68
2021/01/27 05:23:17;;;;;;;20.67;11.77;;;;;;;-0.40;100.00;99533.03;2577515;55;20135;-66
2021/01/27 05:25:48;;;;;;;18.70;11.02;;;;;;;-0.40;100.00;99528.66;2577453;55;20146;-66
2021/01/27 05:28:22;;;;;;;21.83;10.60;;;;;;;-0.39;100.00;99530.34;2577458;55;20469;-67
2021/01/27 05:30:53;;;;;;;21.23;11.18;;;;;;;-0.42;100.00;99522.66;2577058;55;20485;-66
2021/01/27 05:33:41;;;;;;;22.15;12.07;;;;;;;-0.44;100.00;99525.34;2577492;55;20113;-68
2021/01/27 05:36:11;;;;;;;23.45;12.07;;;;;;;-0.44;100.00;99525.34;2576778;55;20135;-67
2021/01/27 05:38:39;;;;;;;23.60;12.10;;;;;;;-0.46;100.00;99521.94;2577575;55;20143;-66
2021/01/27 05:41:13;;;;;;;21.12;11.65;;;;;;;-0.47;100.00;99520.25;2577304;55;20134;-66
2021/01/27 05:43:43;;;;;;;22.85;11.32;;;;;;;-0.49;100.00;99523.88;2577565;55;20118;-67
2021/01/27 05:46:13;;;;;;;19.75;10.63;;;;;;;-0.53;100.00;99524.94;2577560;55;20132;-67
2021/01/27 05:48:49;;;;;;;21.77;11.43;;;;;;;-0.50;100.00;99519.53;2577288;55;20132;-68
2021/01/27 05:51:27;;;;;;;21.48;11.77;;;;;;;-0.56;100.00;99516.28;2577549;55;20126;-66
2021/01/27 05:53:54;;;;;;;24.10;12.77;;;;;;;-0.57;100.00;99519.84;2577487;55;20155;-67
2021/01/27 05:56:24;;;;;;;27.37;13.38;;;;;;;-0.53;100.00;99531.03;2577155;55;20697;-68
2021/01/27 05:59:04;;;;;;;33.40;16.37;;;;;;;-0.49;100.00;99516.00;2577362;55;20138;-66
2021/01/27 06:01:38;;;;;;;30.62;16.85;;;;;;;-0.55;100.00;99506.66;2577349;55;20129;-66
2021/01/27 06:04:22;;;;;;;35.63;16.58;;;;;;;-0.51;100.00;99510.81;2577436;55;20120;-68
2021/01/27 06:07:02;;;;;;;31.65;15.98;;;;;;;-0.53;100.00;99517.91;2577000;55;20113;-66
2021/01/27 06:09:37;;;;;;;39.72;20.25;;;;;;;-0.55;100.00;99514.53;2572336;55;20606;-67
2021/01/27 06:12:07;;;;;;;41.70;22.95;;;;;;;-0.58;100.00;99523.38;2577337;55;20118;-68
2021/01/27 06:14:35;;;;;;;37.88;21.48;;;;;;;-0.59;100.00;99515.63;2577451;55;20615;-67
2021/01/27 06:17:18;;;;;;;31.83;17.95;;;;;;;-0.53;100.00;99515.28;2576982;55;20123;-68
2021/01/27 06:19:59;;;;;;;40.55;18.35;;;;;;;-0.52;100.00;99516.16;2577863;55;20622;-66
2021/01/27 06:22:35;;;;;;;;;;;;;;;-0.38;100.00;99523.34;2577334;55;20110;-67
2021/01/27 06:25:14;;;;;;;70.53;26.23;;;;;;;-0.49;100.00;99522.09;2577556;55;20046;-66
2021/01/27 06:27:56;;;;;;;39.30;18.67;;;;;;;-0.50;100.00;99520.41;2577253;55;20113;-66
2021/01/27 06:30:42;;;;;;;85.72;31.77;;;;;;;-0.43;100.00;99521.78;2576889;55;20139;-66
2021/01/27 06:33:41;;;;;;;33.97;15.88;;;;;;;-0.44;100.00;99520.09;2577508;55;20121;-66
2021/01/27 06:36:46;;;;;;;350.42;120.45;;;;;;;-0.43;100.00;99520.97;2576974;55;20109;-67
2021/01/27 06:39:35;;;;;;;67.60;28.25;;;;;;;-0.46;100.00;99521.94;2563695;55;20121;-66
2021/01/27 06:42:14;;;;;;;32.58;14.98;;;;;;;-0.45;100.00;99518.41;2577353;55;20120;-65
2021/01/27 06:44:56;;;;;;;27.55;13.95;;;;;;;-0.43;100.00;99520.97;2576960;55;20131;-66
2021/01/27 06:47:42;;;;;;;24.05;11.70;;;;;;;-0.45;100.00;99523.63;2577148;55;20118;-67
2021/01/27 06:50:38;;;;;;;22.85;12.57;;;;;;;-0.40;100.00;99514.69;2577470;55;20113;-66
2021/01/27 06:53:34;;;;;;;20.55;11.93;;;;;;;-0.42;100.00;99518.25;2577136;55;20121;-66
2021/01/27 06:56:27;;;;;;;27.50;14.50;;;;;;;-0.39;100.00;99529.53;2577400;55;20117;-67
2021/01/27 06:59:23;;;;;;;37.30;18.02;;;;;;;-0.38;100.00;99528.59;2576853;55;20124;-66
2021/01/27 07:02:19;;;;;;;24.60;12.93;;;;;;;-0.37;100.00;99519.81;2576677;55;20130;-67
2021/01/27 07:05:09;;;;;;;21.70;12.35;;;;;;;-0.31;100.00;99524.72;2577270;55;20119;-66
2021/01/27 07:07:58;;;;;;;24.75;13.43;;;;;;;-0.32;100.00;99530.91;2576853;55;20114;-65
2021/01/27 07:10:50;;;;;;;33.35;17.17;;;;;;;-0.29;100.00;99525.53;2577347;55;20111;-68
2021/01/27 07:13:26;;;;;;;;;;;;;;;-0.16;100.00;99523.97;2577312;55;20132;-66
2021/01/27 07:16:00;;;;;;;22.60;12.43;;;;;;;-0.29;100.00;99526.34;2577400;55;19995;-65
2021/01/27 07:19:13;;;;;;;21.50;12.85;;;;;;;-0.24;100.00;99531.38;2577354;55;20521;-66
2021/01/27 07:21:51;;;;;;;25.85;14.70;;;;;;;-0.30;100.00;99529.03;2576759;55;20122;-68
2021/01/27 07:24:25;;;;;;;21.90;12.40;;;;;;;-0.33;100.00;99518.72;2577203;55;20118;-66
2021/01/27 07:26:57;;;;;;;21.23;12.55;;;;;;;-0.37;100.00;99515.41;2576846;55;20126;-66
2021/01/27 07:29:28;;;;;;;;;;;;;;;-0.10;100.00;99532.47;2577368;55;20139;-68
2021/01/27 07:31:58;;;;;;;22.98;12.18;;;;;;;-0.29;100.00;99531.59;2577263;55;19976;-67
2021/01/27 07:34:35;;;;;;;26.73;12.75;;;;;;;-0.30;100.00;99529.91;2576817;55;20139;-66
2021/01/27 07:37:20;;;;;;;26.35;13.88;;;;;;;-0.24;100.00;99531.38;2577830;55;20214;-66
2021/01/27 07:39:56;;;;;;;22.80;12.57;;;;;;;-0.29;100.00;99528.97;2578674;55;20726;-68
2021/01/27 07:42:29;;;;;;;22.25;11.73;;;;;;;-0.28;100.00;99524.59;2578539;55;20693;-68
2021/01/27 07:44:59;;;;;;;19.12;10.70;;;;;;;-0.24;100.00;99533.16;2580405;55;20139;-66
2021/01/27 07:47:46;;;;;;;15.48;10.07;;;;;;;-0.20;100.00;99532.06;2578940;55;20127;-68
2021/01/27 07:50:15;;;;;;;16.33;9.48;;;;;;;-0.31;100.00;99529.97;2579153;55;20132;-65
2021/01/27 07:53:06;;;;;;;17.20;10.68;;;;;;;-0.28;100.00;99535.09;2580974;55;20117;-68
2021/01/27 07:55:45;;;;;;;15.65;9.48;;;;;;;-0.29;100.00;99533.38;2581222;55;20121;-67
2021/01/27 07:58:18;;;;;;;15.05;9.55;;;;;;;-0.31;100.00;99525.59;2582980;55;20117;-67
2021/01/27 08:00:55;;;;;;;17.83;9.93;;;;;;;-0.26;100.00;99533.22;2581830;55;20127;-66
2021/01/27 08:03:33;;;;;;;18.65;10.75;;;;;;;-0.22;100.00;99528.69;2581115;55;20163;-69
2021/01/27 08:06:06;;;;;;;17.17;10.68;;;;;;;-0.20;100.00;99526.84;2581120;55;20135;-66
2021/01/27 08:08:46;;;;;;;22.73;14.43;;;;;;;-0.16;100.00;99529.22;2581444;55;20127;-66
2021/01/27 08:11:19;;;;;;;31.90;17.60;;;;;;;-0.13;100.00;99533.47;2581237;55;20132;-66
2021/01/27 08:13:47;;;;;;;35.13;20.58;;;;;;;-0.13;100.00;99532.62;2576135;55;20125;-67
2021/01/27 08:16:37;;;;;;;32.03;17.35;;;;;;;-0.05;100.00;99536.56;2582158;55;20143;-66
2021/01/27 08:19:21;;;;;;;27.95;17.15;;;;;;;-0.02;100.00;99546.03;2582790;55;20172;-66
2021/01/27 08:22:00;;;;;;;26.02;15.20;;;;;;;-0.06;100.00;99545.34;2582440;55;20133;-66
2021/01/27 08:24:51;;;;;;;23.30;13.25;;;;;;;0.04;100.00;99551.00;2582825;55;20105;-66
2021/01/27 08:27:35;;;;;;;21.55;12.80;;;;;;;0.03;100.00;99551.06;2582668;55;20635;-67
2021/01/27 08:30:27;;;;;;;20.60;11.07;;;;;;;0.03;100.00;99554.53;2582955;55;20105;-67
2021/01/27 08:33:37;;;;;;;18.95;10.07;;;;;;;0.05;100.00;99552.69;2582753;55;20120;-67
2021/01/27 08:36:08;;;;;;;19.87;11.05;;;;;;;-0.09;100.00;99561.25;2570192;55;20125;-66
2021/01/27 08:38:40;;;;;;;27.73;14.80;;;;;;;-0.12;100.00;99563.16;2582969;55;20117;-67
2021/01/27 08:41:41;;;;;;;21.75;13.43;;;;;;;-0.06;100.00;99566.31;2582826;55;20449;-66
2021/01/27 08:44:13;;;;;;;24.73;13.02;;;;;;;-0.19;100.00;99566.09;2583083;55;20117;-66
2021/01/27 08:46:45;;;;;;;21.20;11.00;;;;;;;-0.20;100.00;99567.03;2582255;55;20116;-67
2021/01/27 08:49:32;;;;;;;19.23;11.77;;;;;;;-0.23;100.00;99564.53;2582916;55;20477;-67
2021/01/27 08:52:00;;;;;;;19.10;12.70;;;;;;;-0.22;100.00;99563.59;2582744;55;20117;-68
2021/01/27 08:54:48;;;;;;;20.65;11.60;;;;;;;-0.13;100.00;99567.56;2582531;55;20123;-67
2021/01/27 08:57:21;;;;;;;19.83;11.90;;;;;;;-0.17;100.00;99566.87;2582829;55;20113;-67
2021/01/27 08:59:54;;;;;;;20.15;11.12;;;;;;;-0.17;100.00;99569.50;2583053;55;20132;-66
2021/01/27 09:02:44;;;;;;;19.87;11.00;;;;;;;-0.08;100.00;99572.59;2582631;55;20112;-68
2021/01/27 09:05:20;;;;;;;21.58;11.38;;;;;;;-0.12;100.00;99573.66;2582473;55;20112;-68
2021/01/27 09:07:50;;;;;;;18.60;12.65;;;;;;;-0.13;100.00;99580.69;2582664;55;20284;-66
2021/01/27 09:10:18;;;;;;;22.23;12.37;;;;;;;-0.15;100.00;99577.25;2582955;55;20130;-67
2021/01/27 09:12:48;;;;;;;20.37;11.43;;;;;;;-0.17;100.00;99582.59;2582326;55;20109;-66
2021/01/27 09:15:28;;;;;;;19.27;11.75;;;;;;;-0.10;100.00;99587.53;2582816;55;20131;-68
2021/01/27 09:17:58;;;;;;;17.98;10.85;;;;;;;-0.16;100.00;99594.78;2582823;55;20116;-66
2021/01/27 09:20:28;;;;;;;21.12;10.68;;;;;;;-0.17;100.00;99590.47;2582620;55;20117;-67
2021/01/27 09:22:59;;;;;;;22.17;11.70;;;;;;;-0.19;100.00;99592.31;2582529;55;20515;-67
2021/01/27 09:25:28;;;;;;;20.42;10.77;;;;;;;-0.21;100.00;99591.53;2582833;55;20117;-66
2021/01/27 09:28:08;;;;;;;18.75;11.30;;;;;;;-0.15;100.00;99593.84;2582488;55;20135;-68
2021/01/27 09:30:36;;;;;;;19.85;11.10;;;;;;;-0.18;100.00;99588.78;2582878;55;20524;-66
2021/01/27 09:33:09;;;;;;;19.67;11.88;;;;;;;-0.15;100.00;99595.63;2582426;55;20117;-68
2021/01/27 09:35:37;;;;;;;20.35;11.32;;;;;;;-0.11;100.00;99606.81;2582803;55;20105;-66
2021/01/27 09:38:10;;;;;;;20.62;12.35;;;;;;;-0.12;100.00;99597.25;2582688;55;20120;-67
2021/01/27 09:40:41;;;;;;;21.52;12.57;;;;;;;-0.08;100.00;99601.44;2582583;55;20124;-66
2021/01/27 09:43:12;;;;;;;21.25;11.63;;;;;;;-0.05;100.00;99598.66;2582685;55;20134;-66
2021/01/27 09:45:42;;;;;;;19.90;11.85;;;;;;;-0.03;100.00;99604.66;2582906;55;20131;-66
2021/01/27 09:48:13;;;;;;;18.83;11.63;;;;;;;0.01;100.00;99608.00;2582459;55;20142;-67
2021/01/27 09:50:46;;;;;;;22.17;12.93;;;;;;;0.01;100.00;99595.75;2582526;55;20127;-66
2021/01/27 09:53:24;;;;;;;21.02;12.98;;;;;;;0.07;100.00;99603.28;2582660;55;20117;-66
2021/01/27 09:55:53;;;;;;;23.15;11.82;;;;;;;0.08;100.00;99606.78;2582368;55;20492;-66
2021/01/27 09:58:23;;;;;;;19.37;11.82;;;;;;;0.11;100.00;99604.00;2582540;55;20112;-66
2021/01/27 10:00:51;;;;;;;20.33;12.18;;;;;;;0.09;100.00;99604.06;2582539;55;20121;-66
2021/01/27 10:03:28;;;;;;;21.60;13.18;;;;;;;0.15;100.00;99602.94;2582397;55;20539;-68
2021/01/27 10:05:57;;;;;;;21.65;12.68;;;;;;;0.18;100.00;99604.53;2582258;55;20124;-68
2021/01/27 10:08:30;;;;;;;22.58;13.27;;;;;;;0.23;100.00;99607.78;2582870;55;20128;-68
2021/01/27 10:11:04;;;;;;;22.35;12.52;;;;;;;0.29;100.00;99611.87;2582394;55;20109;-66
2021/01/27 10:13:35;;;;;;;21.60;12.77;;;;;;;0.29;100.00;99612.72;2582805;55;20619;-68
2021/01/27 10:16:05;;;;;;;20.92;11.77;;;;;;;0.27;100.00;99604.06;2582491;55;20129;-66
2021/01/27 10:18:34;;;;;;;23.50;13.53;;;;;;;0.30;100.00;99609.19;2582540;55;20109;-66
2021/01/27 10:21:04;;;;;;;19.17;12.55;;;;;;;0.33;100.00;99606.41;2582552;55;20131;-67
2021/01/27 10:23:39;;;;;;;21.62;12.20;;;;;;;0.38;100.00;99601.75;2577575;55;20109;-67
2021/01/27 10:26:41;;;;;;;20.55;12.68;;;;;;;0.56;100.00;99614.88;2582285;55;20124;-66
2021/01/27 10:29:37;;;;;;;21.73;12.35;;;;;;;0.58;100.00;99605.13;2555241;56;20133;-67
2021/01/27 10:32:21;;;;;;;22.10;13.52;;;;;;;0.61;100.00;99606.75;2549889;56;20121;-66
2021/01/27 10:34:50;;;;;;;24.30;14.00;;;;;;;0.53;100.00;99608.00;2565584;55;20131;-66
2021/01/27 10:37:33;;;;;;;23.33;14.00;;;;;;;0.58;100.00;99605.13;2571988;55;20124;-66
2021/01/27 10:40:24;;;;;;;20.83;12.25;;;;;;;0.64;100.00;99606.59;2571975;55;20114;-67
2021/01/27 10:42:54;;;;;;;18.23;10.90;;;;;;;0.58;100.00;99613.00;2576999;55;20244;-66
2021/01/27 10:45:33;;;;;;;18.73;11.18;;;;;;;0.63;100.00;99608.38;2577459;55;20109;-66
2021/01/27 10:48:07;;;;;;;21.70;12.25;;;;;;;0.66;100.00;99620.50;2576739;55;20131;-66
2021/01/27 10:50:36;;;;;;;37.97;18.75;;;;;;;0.63;100.00;99620.66;2572326;55;20127;-66
2021/01/27 10:53:12;;;;;;;43.20;20.73;;;;;;;0.62;100.00;99621.59;2577314;55;20110;-66
2021/01/27 10:55:42;;;;;;;26.75;14.90;;;;;;;0.58;100.00;99620.87;2576781;55;20630;-66
2021/01/27 10:58:12;;;;;;;27.83;15.35;;;;;;;0.57;100.00;99624.44;2577154;55;20123;-66
2021/01/27 11:00:41;;;;;;;55.97;29.27;;;;;;;0.59;100.00;99619.13;2577258;55;20508;-66
2021/01/27 11:03:10;;;;;;;76.53;39.00;;;;;;;0.63;100.00;99620.66;2576501;55;20132;-67
2021/01/27 11:05:38;;;;;;;74.90;39.42;;;;;;;0.64;100.00;99624.97;2577265;55;20625;-67
2021/01/27 11:08:07;;;;;;;87.47;43.72;;;;;;;0.66;100.00;99623.97;2576651;55;20548;-68
2021/01/27 11:10:34;;;;;;;92.50;46.03;;;;;;;0.67;100.00;99628.28;2576916;55;20260;-67
2021/01/27 11:13:02;;;;;;;99.75;49.42;;;;;;;0.73;100.00;99628.91;2577101;55;20130;-68
2021/01/27 11:15:30;;;;;;;93.43;47.72;;;;;;;0.75;100.00;99625.28;2575432;55;20121;-67
2021/01/27 11:17:58;;;;;;;67.18;33.10;;;;;;;0.80;100.00;99620.63;2571868;55;20118;-66
2021/01/27 11:20:27;;;;;;;57.83;28.55;;;;;;;0.81;100.00;99624.12;2572982;55;20128;-68
2021/01/27 11:22:55;;;;;;;54.42;28.60;;;;;;;0.81;100.00;99632.00;2572671;55;20638;-67
2021/01/27 11:25:25;;;;;;;44.78;23.00;;;;;;;0.79;100.00;99628.59;2572577;55;20528;-67
2021/01/27 11:27:53;;;;;;;41.85;21.15;;;;;;;0.78;100.00;99621.63;2572486;55;20142;-66
2021/01/27 11:30:25;;;;;;;42.42;22.45;;;;;;;0.78;100.00;99616.38;2572773;55;20621;-68
2021/01/27 11:32:52;;;;;;;;;;;;;;;0.97;100.00;99619.75;2572605;55;20102;-67
2021/01/27 11:35:22;;;;;;;41.90;22.60;;;;;;;0.81;100.00;99609.19;2572820;55;20378;-68
2021/01/27 11:37:50;;;;;;;37.05;21.58;;;;;;;0.80;100.00;99625.03;2572583;55;20114;-67
2021/01/27 11:40:20;;;;;;;35.78;20.80;;;;;;;0.78;100.00;99616.38;2572551;55;20156;-67
2021/01/27 11:42:47;;;;;;;38.22;22.42;;;;;;;0.81;100.00;99629.38;2572343;55;20198;-66
2021/01/27 11:45:15;;;;;;;31.60;20.25;;;;;;;0.85;100.00;99617.78;2572622;55;20139;-67